createdAt,value
2022-10-28T12:16:21.374Z,1009.68
2022-10-28T12:17:21.307Z,1009.70
2022-10-28T12:18:21.885Z,1009.71
2022-10-28T12:19:20.295Z,1009.72
2022-10-28T12:20:26.348Z,1009.74
2022-10-28T12:21:23.915Z,1009.70
2022-10-28T12:22:20.872Z,1009.67
2022-10-28T12:23:21.832Z,1009.67
2022-10-28T12:24:20.827Z,1009.67
2022-10-28T12:25:19.550Z,1009.68
2022-10-28T12:26:19.394Z,1009.69
2022-10-28T12:27:19.401Z,1009.71
2022-10-28T12:28:21.852Z,1009.69
2022-10-28T12:29:19.309Z,1009.71
2022-10-28T12:30:19.420Z,1009.69
2022-10-28T12:31:20.356Z,1009.67
2022-10-28T12:32:19.326Z,1009.64
2022-10-28T12:33:20.336Z,1009.61
2022-10-28T12:34:19.341Z,1009.64
2022-10-28T12:35:21.834Z,1009.61
2022-10-28T12:36:19.330Z,1009.59
2022-10-28T12:37:19.872Z,1009.57
2022-10-28T12:38:19.365Z,1009.56
2022-10-28T12:39:19.267Z,1009.55
2022-10-28T12:40:20.913Z,1009.60
2022-10-28T12:41:19.863Z,1009.54
2022-10-28T12:42:23.383Z,1009.53
2022-10-28T12:43:20.930Z,1009.51
2022-10-28T12:44:20.840Z,1009.48
2022-10-28T12:45:19.821Z,1009.53
2022-10-28T12:46:19.925Z,1009.48
2022-10-28T12:47:32.737Z,1009.50
2022-10-28T13:12:34.791Z,1009.58
2022-10-28T13:13:34.812Z,1009.61
2022-10-28T13:14:34.752Z,1009.58
2022-10-28T13:15:34.768Z,1009.57
2022-10-28T13:16:34.739Z,1009.58
2022-10-28T13:17:34.745Z,1009.55
2022-10-28T13:34:04.704Z,1009.57
2022-10-28T13:35:04.684Z,1009.57
2022-10-28T13:36:04.667Z,1009.56
2022-10-28T13:37:04.655Z,1009.52
2022-10-28T13:38:04.640Z,1009.55
2022-10-28T13:39:04.623Z,1009.54
2022-10-28T13:40:04.640Z,1009.58
2022-10-28T13:43:59.374Z,1009.47
2022-10-28T13:44:59.326Z,1009.48
2022-10-28T13:45:59.321Z,1009.45
2022-10-28T13:46:59.335Z,1009.47
2022-10-28T13:47:59.304Z,1009.49
2022-10-28T13:49:01.286Z,1009.51
2022-10-28T13:49:59.258Z,1009.52
2022-10-28T13:50:59.272Z,1009.51
2022-10-28T13:51:59.252Z,1009.51
2022-10-28T13:52:59.298Z,1009.49
